Time;durP1;ratioP1;P1;durP2;ratioP2;P2;SDS_P1;SDS_P2;PMS_P1;PMS_P2;Temp;Humidity;BMP_temperature;BMP_pressure;BME280_temperature;BME280_humidity;BME280_pressure;Samples;Min_cycle;Max_cycle;Signal;HPM_P1;HPM_P2
2022/03/30 00:00:30;;;;;;;;;53.25;42.75;;;;;13.79;71.14;100164.38;4967083;28;45291;-58
2022/03/30 00:02:56;;;;;;;;;52.00;42.75;;;;;13.74;71.22;100159.38;4966519;28;45395;-59
2022/03/30 00:05:21;;;;;;;;;55.50;39.75;;;;;13.72;71.03;100161.22;4969664;28;45416;-58
2022/03/30 00:07:53;;;;;;;;;55.75;42.50;;;;;13.69;71.76;100164.00;4965316;28;45350;-58
2022/03/30 00:10:20;;;;;;;;;60.75;45.75;;;;;13.67;71.57;100150.16;4978251;28;45414;-58
2022/03/30 00:12:46;;;;;;;;;57.25;43.25;;;;;13.68;72.13;100162.31;4978309;28;45291;-58
2022/03/30 00:15:11;;;;;;;;;59.00;44.75;;;;;13.66;71.29;100148.47;4978147;28;45335;-58
2022/03/30 00:17:37;;;;;;;;;53.75;39.75;;;;;13.65;71.21;100155.47;4983576;28;45310;-59
2022/03/30 00:20:03;;;;;;;;;53.75;42.50;;;;;13.66;71.37;100159.78;4984130;28;45252;-58
2022/03/30 00:22:28;;;;;;;;;52.75;41.25;;;;;13.68;71.30;100152.69;4979029;28;45493;-59
2022/03/30 00:24:54;;;;;;;;;54.25;43.00;;;;;13.69;71.10;100148.31;4978205;28;45347;-58
2022/03/30 00:27:19;;;;;;;;;55.25;42.25;;;;;13.69;71.27;100146.56;4973139;28;45430;-59
2022/03/30 00:29:45;;;;;;;;;62.00;44.25;;;;;13.70;71.04;100143.03;4959168;28;45346;-58
2022/03/30 00:32:11;;;;;;;;;63.75;44.25;;;;;13.70;71.09;100140.41;4977468;28;45518;-58
2022/03/30 00:34:37;;;;;;;;;59.75;43.25;;;;;13.67;71.37;100144.94;4978026;28;45218;-58
2022/03/30 00:37:02;;;;;;;;;67.75;48.50;;;;;13.64;71.07;100140.72;4977314;28;45326;-58
2022/03/30 00:39:28;;;;;;;;;59.25;47.75;;;;;13.61;71.11;100132.19;4977857;28;45310;-58
2022/03/30 00:41:53;;;;;;;;;60.25;47.75;;;;;13.58;71.47;100134.94;4977829;28;45205;-58
2022/03/30 00:44:19;;;;;;;;;64.00;46.75;;;;;13.58;71.57;100125.34;4977962;28;45220;-58
2022/03/30 00:46:45;;;;;;;;;68.00;50.00;;;;;13.58;71.42;100130.56;4977302;28;45181;-58
2022/03/30 00:49:12;;;;;;;;;62.25;46.25;;;;;13.56;71.75;100127.19;4977920;28;45227;-58
2022/03/30 00:51:37;;;;;;;;;68.50;49.25;;;;;13.57;72.01;100122.81;4977400;28;45331;-58
2022/03/30 00:54:04;;;;;;;;;63.75;47.50;;;;;13.56;72.13;100121.97;4977526;28;45567;-58
2022/03/30 00:56:31;;;;;;;;;66.25;49.00;;;;;13.58;72.21;100125.34;4976620;28;45426;-58
2022/03/30 00:58:57;;;;;;;;;65.00;46.75;;;;;13.59;72.04;100123.56;4977614;28;45424;-58
2022/03/30 01:01:23;;;;;;;;;63.00;48.25;;;;;13.60;72.24;100114.81;4977362;28;45208;-57
2022/03/30 01:03:48;;;;;;;;;62.00;47.00;;;;;13.61;72.33;100114.75;4977697;28;45494;-57
2022/03/30 01:06:14;;;;;;;;;63.25;46.75;;;;;13.62;72.20;100111.25;4976991;27;45291;-57
2022/03/30 01:08:39;;;;;;;;;65.00;49.00;;;;;13.62;72.27;100106.03;4977560;28;45267;-58
2022/03/30 01:11:05;;;;;;;;;64.00;44.00;;;;;13.66;72.16;100110.16;4977515;28;45288;-58
2022/03/30 01:13:32;;;;;;;;;66.25;47.25;;;;;13.65;71.99;100107.63;4976477;28;45227;-58
2022/03/30 01:15:58;;;;;;;;;63.00;48.50;;;;;13.65;72.21;100108.47;4976908;28;46915;-58
2022/03/30 01:18:24;;;;;;;;;69.50;50.75;;;;;13.65;71.73;100094.56;4989490;28;45401;-58
2022/03/30 01:20:50;;;;;;;;;60.50;46.00;;;;;13.62;72.11;100089.50;4977726;28;45849;-58
2022/03/30 01:23:16;;;;;;;;;69.50;50.00;;;;;13.59;72.49;100084.41;4977287;28;45504;-58
2022/03/30 01:25:41;;;;;;;;;62.00;48.00;;;;;13.57;72.95;100084.50;4976887;28;46220;-58
2022/03/30 01:28:07;;;;;;;;;56.75;44.25;;;;;13.60;72.83;100071.28;4977343;28;45354;-58
2022/03/30 01:33:16;;;;;;;;;59.25;47.00;;;;;13.51;72.91;100068.31;4976989;28;45391;-58
2022/03/30 01:35:42;;;;;;;;;60.75;47.00;;;;;13.44;73.03;100062.56;4976820;28;46419;-60
2022/03/30 01:38:07;;;;;;;;;64.75;49.75;;;;;13.39;72.63;100062.75;4977055;28;45274;-58
2022/03/30 01:40:34;;;;;;;;;66.00;49.25;;;;;13.37;73.41;100064.59;4977275;28;45277;-58
2022/03/30 01:42:59;;;;;;;;;72.75;50.25;;;;;13.36;73.46;100064.69;4975511;28;45552;-58
2022/03/30 01:45:25;;;;;;;;;63.00;49.00;;;;;13.35;73.38;100060.38;4976789;28;46304;-57
2022/03/30 01:47:57;;;;;;;;;60.25;45.00;;;;;13.35;73.66;100057.78;4976812;28;45307;-59
2022/03/30 01:50:25;;;;;;;;;60.00;44.50;;;;;13.37;73.31;100063.75;4968640;28;45168;-58
2022/03/30 01:52:50;;;;;;;;;65.50;51.25;;;;;13.38;73.81;100057.63;4959259;28;45436;-58
2022/03/30 01:55:17;;;;;;;;;59.50;47.50;;;;;13.38;73.99;100061.06;4966839;28;45220;-58
2022/03/30 01:57:42;;;;;;;;;62.00;46.00;;;;;13.35;73.51;100053.41;4975895;28;46063;-58
2022/03/30 02:00:10;;;;;;;;;61.25;45.75;;;;;13.36;73.71;100057.69;4976339;28;45419;-58
2022/03/30 02:02:36;;;;;;;;;60.25;46.25;;;;;13.37;73.61;100050.72;4974870;28;45536;-58
2022/03/30 02:05:02;;;;;;;;;57.25;40.00;;;;;13.40;73.70;100053.16;4975778;28;45993;-58
2022/03/30 02:07:28;;;;;;;;;58.75;45.00;;;;;13.39;73.85;100046.25;4974684;28;45383;-58
2022/03/30 02:09:53;;;;;;;;;64.75;50.25;;;;;13.41;73.90;100047.03;4974785;28;45291;-58
2022/03/30 02:12:19;;;;;;;;;68.50;48.75;;;;;13.43;73.85;100042.59;4975014;28;45181;-58
2022/03/30 02:14:44;;;;;;;;;62.00;47.75;;;;;13.43;73.79;100037.38;4974512;28;47045;-58
2022/03/30 02:17:10;;;;;;;;;64.50;48.25;;;;;13.41;73.81;100039.19;4976753;28;45294;-58
2022/03/30 02:19:36;;;;;;;;;62.75;47.00;;;;;13.41;73.93;100031.38;4985497;28;45471;-58
2022/03/30 02:22:02;;;;;;;;;64.75;48.00;;;;;13.40;73.96;100027.06;4975260;28;45528;-58
2022/03/30 02:24:27;;;;;;;;;64.25;46.50;;;;;13.37;73.94;100025.47;4974967;28;47140;-58
2022/03/30 02:26:52;;;;;;;;;65.75;49.25;;;;;13.34;73.76;100027.38;4975909;28;45323;-58
2022/03/30 02:29:18;;;;;;;;;70.00;47.50;;;;;13.31;73.97;100023.16;4979531;28;45629;-58
2022/03/30 02:31:45;;;;;;;;;65.50;49.25;;;;;13.29;74.12;100024.16;4978427;28;45466;-58
2022/03/30 02:34:11;;;;;;;;;66.50;47.50;;;;;13.28;74.06;100017.25;4979326;28;46195;-58
2022/03/30 02:36:36;;;;;;;;;61.00;48.25;;;;;13.26;74.52;100016.50;4972266;28;45976;-58
2022/03/30 02:39:03;;;;;;;;;67.25;51.25;;;;;13.24;74.33;100018.34;4979490;28;45271;-58
2022/03/30 02:41:29;;;;;;;;;67.75;49.25;;;;;13.20;74.46;100014.19;4979140;28;45445;-58
2022/03/30 02:43:54;;;;;;;;;73.25;53.00;;;;;13.14;74.64;100010.09;4979182;28;46269;-58
2022/03/30 02:46:20;;;;;;;;;70.00;50.75;;;;;13.09;74.43;100014.69;4978890;28;45242;-58
2022/03/30 02:48:45;;;;;;;;;67.25;51.25;;;;;13.03;74.66;100015.84;4979578;28;45355;-58
2022/03/30 02:51:10;;;;;;;;;64.00;48.25;;;;;13.00;74.87;100017.72;4978460;28;45284;-58
2022/03/30 02:53:36;;;;;;;;;70.75;53.50;;;;;12.99;75.29;100013.44;4979208;28;46792;-58
2022/03/30 02:56:03;;;;;;;;;74.25;52.25;;;;;12.97;75.27;100013.50;4978397;28;45350;-58
2022/03/30 02:58:29;;;;;;;;;68.50;51.75;;;;;12.96;75.05;100011.81;4979364;28;45448;-58
2022/03/30 03:00:55;;;;;;;;;68.00;52.50;;;;;12.95;75.49;100011.91;4978684;28;45330;-60
2022/03/30 03:03:21;;;;;;;;;69.75;52.00;;;;;12.92;75.57;100009.44;4979227;28;45989;-60
2022/03/30 03:05:47;;;;;;;;;74.00;53.00;;;;;12.92;75.42;100001.63;4978440;28;45264;-60
2022/03/30 03:08:12;;;;;;;;;68.00;52.00;;;;;12.92;75.53;100005.06;4978543;28;45342;-60
2022/03/30 03:10:43;;;;;;;;;69.50;53.50;;;;;12.91;75.28;100002.53;4977953;28;45349;-60
2022/03/30 03:13:09;;;;;;;;;68.25;49.25;;;;;12.88;75.70;99994.88;4978232;28;46104;-60
2022/03/30 03:15:36;;;;;;;;;69.75;52.00;;;;;12.88;75.58;99998.34;4977689;28;45408;-60
2022/03/30 03:18:02;;;;;;;;;64.75;50.00;;;;;12.89;75.63;99999.16;4987222;28;45385;-60
2022/03/30 03:20:29;;;;;;;;;63.75;49.50;;;;;12.89;76.09;99988.75;4982135;28;45434;-59
2022/03/30 03:22:55;;;;;;;;;48.00;40.00;;;;;12.88;77.10;100002.69;4977707;28;45437;-60
2022/03/30 03:25:21;;;;;;;;;60.50;46.75;;;;;12.82;76.19;99983.00;4978739;28;45921;-59
2022/03/30 03:27:47;;;;;;;;;70.50;50.00;;;;;12.83;76.37;99991.66;4979027;28;45358;-59
2022/03/30 03:30:14;;;;;;;;;65.50;48.25;;;;;12.86;75.92;99994.97;4981951;28;45391;-59
2022/03/30 03:32:40;;;;;;;;;69.00;49.25;;;;;12.86;76.10;99992.34;4978688;28;45391;-59
2022/03/30 03:35:07;;;;;;;;;66.75;52.00;;;;;12.89;76.01;99996.56;4977556;28;45338;-59
2022/03/30 03:37:32;;;;;;;;;65.75;48.00;;;;;12.88;76.26;99993.13;4978658;28;45206;-59
2022/03/30 03:39:58;;;;;;;;;68.33;51.33;;;;;12.86;76.09;99987.13;4978466;28;45293;-58
2022/03/30 03:42:23;;;;;;;;;69.00;49.50;;;;;12.86;76.00;99986.28;4978518;28;45257;-58
2022/03/30 03:44:48;;;;;;;;;68.67;51.67;;;;;12.83;76.36;99982.06;4977177;28;45640;-60
2022/03/30 03:47:14;;;;;;;;;64.33;50.00;;;;;12.83;76.66;99979.47;4978661;28;45244;-60
2022/03/30 03:49:40;;;;;;;;;67.33;52.00;;;;;12.84;76.51;99975.94;4978321;28;45191;-60
2022/03/30 03:52:06;;;;;;;;;64.50;49.75;;;;;12.84;76.63;99978.53;4978027;28;46046;-60
2022/03/30 03:54:32;;;;;;;;;68.00;51.50;;;;;12.82;76.79;99975.16;4978011;28;45848;-60
2022/03/30 03:56:58;;;;;;;;;67.50;50.25;;;;;12.85;76.83;99976.78;4978538;28;45358;-59
2022/03/30 03:59:23;;;;;;;;;62.75;48.50;;;;;12.85;76.58;99974.16;4978274;28;45326;-60
2022/03/30 04:01:49;;;;;;;;;71.75;53.75;;;;;12.85;76.86;99963.75;4978161;28;45461;-60
2022/03/30 04:04:15;;;;;;;;;66.50;50.75;;;;;12.84;76.62;99970.72;4978112;28;45386;-63
2022/03/30 04:06:40;;;;;;;;;73.00;52.25;;;;;12.82;76.76;99962.13;4978267;28;45353;-61
2022/03/30 04:09:06;;;;;;;;;69.50;53.00;;;;;12.81;76.53;99960.41;4978046;28;45476;-61
2022/03/30 04:11:31;;;;;;;;;73.75;50.50;;;;;12.79;77.33;99963.09;4978160;28;46147;-63
2022/03/30 04:13:57;;;;;;;;;72.75;51.50;;;;;12.76;77.84;99965.03;4978104;28;45254;-63
2022/03/30 04:16:22;;;;;;;;;71.25;51.00;;;;;12.74;77.16;99964.25;4978046;28;45304;-63
2022/03/30 04:18:48;;;;;;;;;71.25;51.00;;;;;12.74;77.24;99959.03;4990064;28;45346;-62
2022/03/30 04:21:13;;;;;;;;;72.50;55.00;;;;;12.75;77.19;99951.13;4978765;28;45234;-62
2022/03/30 04:23:39;;;;;;;;;68.50;49.50;;;;;12.76;77.01;99952.81;4979895;28;45310;-61
2022/03/30 04:26:04;;;;;;;;;70.75;51.50;;;;;12.78;77.08;99956.19;4978353;28;45276;-64
2022/03/30 04:28:29;;;;;;;;;72.75;51.75;;;;;12.80;77.37;99954.34;4978048;28;45422;-63
2022/03/30 04:30:55;;;;;;;;;63.00;51.00;;;;;12.79;77.31;99951.81;4977662;28;46216;-63
2022/03/30 04:33:20;;;;;;;;;64.75;50.00;;;;;12.82;77.34;99954.31;4977678;28;45137;-63
2022/03/30 04:35:46;;;;;;;;;71.00;53.00;;;;;12.82;77.10;99951.72;4977650;28;45401;-63
2022/03/30 04:38:11;;;;;;;;;69.50;51.25;;;;;12.85;77.18;99954.16;4977784;28;45202;-63
2022/03/30 04:40:36;;;;;;;;;76.50;52.75;;;;;12.89;77.19;99958.28;4977893;28;47215;-62
2022/03/30 04:43:03;;;;;;;;;66.75;52.25;;;;;12.91;76.81;99948.63;4977540;28;45329;-62
2022/03/30 04:45:28;;;;;;;;;66.50;51.00;;;;;12.93;77.14;99945.94;4977543;28;45335;-62
2022/03/30 04:47:54;;;;;;;;;68.75;51.00;;;;;12.93;77.14;99944.19;4976044;28;45524;-62
2022/03/30 04:50:21;;;;;;;;;65.25;51.75;;;;;12.95;76.95;99941.50;4977293;28;45421;-62
2022/03/30 04:52:47;;;;;;;;;70.75;51.50;;;;;12.96;76.91;99932.75;4977025;28;45208;-60
2022/03/30 04:55:13;;;;;;;;;72.75;52.75;;;;;12.94;76.95;99935.44;4977225;28;45431;-62
2022/03/30 04:57:40;;;;;;;;;72.75;52.75;;;;;12.93;77.14;99935.50;4977123;28;45267;-61
2022/03/30 05:00:08;;;;;;;;;76.75;54.75;;;;;12.94;77.27;99935.44;4977388;28;47008;-62
2022/03/30 05:02:34;;;;;;;;;68.75;52.00;;;;;12.95;77.25;99926.69;4976851;28;45960;-62
2022/03/30 05:04:59;;;;;;;;;73.00;53.50;;;;;12.94;77.03;99927.59;4977325;28;45346;-62
2022/03/30 05:07:24;;;;;;;;;76.75;54.50;;;;;12.91;76.55;99938.19;4977148;28;45358;-62
2022/03/30 05:09:51;;;;;;;;;74.50;55.00;;;;;12.87;76.38;99934.06;4977454;28;46163;-63
2022/03/30 05:12:17;;;;;;;;;73.75;55.00;;;;;12.86;77.06;99931.53;4977048;28;45694;-63
2022/03/30 05:14:42;;;;;;;;;72.25;56.00;;;;;12.84;77.53;99931.59;4977213;28;45283;-62
2022/03/30 05:17:08;;;;;;;;;73.50;51.75;;;;;12.83;77.64;99935.13;4978560;28;45413;-61
2022/03/30 05:19:34;;;;;;;;;73.50;52.50;;;;;12.83;76.99;99936.91;4987214;28;45954;-61
2022/03/30 05:21:59;;;;;;;;;70.50;50.50;;;;;12.78;77.62;99934.50;4977334;28;45371;-61
2022/03/30 05:24:25;;;;;;;;;71.50;51.75;;;;;12.76;77.78;99929.34;4977285;28;45411;-60
2022/03/30 05:26:50;;;;;;;;;70.25;52.50;;;;;12.75;77.93;99935.50;4976884;28;45157;-59
2022/03/30 05:29:16;;;;;;;;;73.25;55.75;;;;;12.74;77.79;99933.81;4987349;28;45250;-60
2022/03/30 05:31:41;;;;;;;;;66.25;49.25;;;;;12.76;78.00;99933.72;4976611;28;45313;-58
2022/03/30 05:34:06;;;;;;;;;75.75;53.75;;;;;12.76;77.99;99931.13;4977207;28;45443;-59
2022/03/30 05:36:31;;;;;;;;;79.00;53.67;;;;;12.77;77.65;99933.66;4976374;28;45383;-60
2022/03/30 05:38:57;;;;;;;;;61.25;46.50;;;;;12.77;78.07;99930.22;4976765;28;45295;-58
2022/03/30 05:41:22;;;;;;;;;65.00;52.33;;;;;12.77;78.65;99935.41;4976571;28;45366;-60
2022/03/30 05:43:47;;;;;;;;;74.00;54.75;;;;;12.84;78.97;99939.44;4975939;28;45547;-58
2022/03/30 05:46:13;;;;;;;;;78.75;55.25;;;;;12.90;77.96;99938.28;4975366;28;45491;-58
2022/03/30 05:48:39;;;;;;;;;72.50;54.75;;;;;12.88;78.18;99929.69;4976539;28;45281;-58
2022/03/30 05:51:04;;;;;;;;;74.25;55.25;;;;;12.88;78.02;99935.75;4976161;28;45385;-59
2022/03/30 05:53:29;;;;;;;;;80.25;64.75;;;;;12.86;78.03;99932.38;4976546;28;45252;-56
2022/03/30 05:55:57;;;;;;;;;81.50;56.50;;;;;12.88;78.16;99938.34;4972296;28;45314;-56
2022/03/30 05:58:23;;;;;;;;;69.50;53.50;;;;;12.88;77.99;99940.97;4965836;28;46099;-56
2022/03/30 06:00:50;;;;;;;;;75.75;54.00;;;;;12.85;78.87;99943.72;4967985;28;45304;-58
2022/03/30 06:03:16;;;;;;;;;66.50;53.75;;;;;12.84;78.21;99947.25;4966600;28;45480;-58
2022/03/30 06:05:43;;;;;;;;;75.75;54.25;;;;;12.86;77.89;99953.22;4968510;28;45372;-57
2022/03/30 06:08:09;;;;;;;;;76.00;56.50;;;;;12.86;77.79;99945.41;4969078;28;46092;-57
2022/03/30 06:10:36;;;;;;;;;73.50;54.25;;;;;12.85;78.00;99951.53;4969279;28;46035;-58
2022/03/30 06:13:02;;;;;;;;;76.25;55.75;;;;;12.87;78.44;99957.53;4968195;28;45421;-58
2022/03/30 06:15:29;;;;;;;;;76.00;57.00;;;;;12.84;78.34;99960.28;4969591;28;45440;-58
2022/03/30 06:17:55;;;;;;;;;73.75;55.00;;;;;12.81;78.24;99957.81;4971823;28;46108;-58
2022/03/30 06:20:25;;;;;;;;;80.75;57.50;;;;;12.76;78.04;99955.44;4971103;28;45261;-58
2022/03/30 06:22:52;;;;;;;;;75.00;55.25;;;;;12.78;78.75;99961.41;4967874;28;45493;-58
2022/03/30 06:25:20;;;;;;;;;77.00;55.00;;;;;12.78;79.35;99952.75;4968530;28;45158;-58
2022/03/30 06:27:45;;;;;;;;;80.50;57.00;;;;;12.77;78.26;99961.50;4969053;28;45366;-59
2022/03/30 06:30:12;;;;;;;;;76.75;55.25;;;;;12.78;78.92;99960.56;4971044;28;45372;-58
2022/03/30 06:32:37;;;;;;;;;69.75;53.00;;;;;12.78;78.97;99956.19;4971576;28;45354;-58
2022/03/30 06:35:04;;;;;;;;;75.50;54.75;;;;;12.76;78.93;99952.81;4978945;28;45249;-58
2022/03/30 06:37:30;;;;;;;;;72.00;52.75;;;;;12.76;79.23;99954.59;4978768;28;47586;-57
2022/03/30 06:39:55;;;;;;;;;71.50;52.50;;;;;12.75;79.33;99956.34;4978930;28;45431;-58
2022/03/30 06:42:21;;;;;;;;;76.33;54.33;;;;;12.75;79.22;99955.50;4979219;28;45245;-58
2022/03/30 06:44:46;;;;;;;;;74.50;52.50;;;;;12.72;78.99;99953.91;4978586;28;45484;-58
2022/03/30 06:47:12;;;;;;;;;78.00;56.00;;;;;12.71;79.01;99959.19;4978755;28;45892;-58
2022/03/30 06:49:38;;;;;;;;;73.00;56.50;;;;;12.70;79.23;99957.50;4978659;28;45386;-59
2022/03/30 06:52:08;;;;;;;;;73.50;53.50;;;;;12.66;80.67;99959.41;4978551;27;45169;-59
2022/03/30 06:54:35;;;;;;;;;72.25;52.25;;;;;12.61;79.88;99971.81;4978420;28;45579;-59
2022/03/30 06:57:02;;;;;;;;;79.00;58.75;;;;;12.61;79.65;99965.75;4977491;28;46334;-59
2022/03/30 06:59:27;;;;;;;;;75.75;55.75;;;;;12.59;81.46;99973.66;4978859;28;45189;-59
2022/03/30 07:01:55;;;;;;;;;72.00;53.50;;;;;12.51;83.60;99977.56;4979059;28;45271;-59
2022/03/30 07:04:21;;;;;;;;;76.00;57.25;;;;;12.39;84.09;99978.97;4978349;28;45390;-59
2022/03/30 07:12:14;;;;;;;;;73.00;53.00;;;;;12.22;82.10;99974.56;4978755;28;45281;-59
2022/03/30 07:14:40;;;;;;;;;72.25;56.25;;;;;12.22;82.43;99971.97;4978628;28;45211;-59
2022/03/30 07:17:05;;;;;;;;;72.25;54.00;;;;;12.20;82.85;99971.16;4979765;28;46192;-59
2022/03/30 07:19:31;;;;;;;;;77.00;55.25;;;;;12.15;84.73;99971.38;4989569;28;45237;-59
2022/03/30 07:21:56;;;;;;;;;76.75;54.50;;;;;12.12;83.74;99966.31;4979094;28;45325;-57
2022/03/30 07:24:21;;;;;;;;;71.75;51.75;;;;;12.10;84.92;99964.69;4978503;28;45543;-57
2022/03/30 07:26:47;;;;;;;;;69.33;50.00;;;;;12.10;83.93;99967.31;4978272;28;45468;-57
2022/03/30 07:29:12;;;;;;;;;70.25;53.25;;;;;12.13;84.23;99965.41;4970555;28;45610;-58
2022/03/30 07:31:37;;;;;;;;;74.25;54.00;;;;;12.13;84.46;99967.16;4973305;28;45255;-58
2022/03/30 07:34:04;;;;;;;;;71.33;53.00;;;;;12.09;85.53;99963.84;4978633;28;45301;-58
2022/03/30 07:36:30;;;;;;;;;71.75;51.75;;;;;12.07;84.50;99967.44;4977805;28;47064;-59
2022/03/30 07:38:56;;;;;;;;;64.75;51.25;;;;;12.08;84.56;99966.53;4978291;28;45422;-59
2022/03/30 07:41:21;;;;;;;;;72.25;53.50;;;;;12.13;84.17;99962.78;4978287;28;45306;-59
2022/03/30 07:43:46;;;;;;;;;72.50;53.00;;;;;12.19;83.77;99969.47;4978189;28;45507;-61
2022/03/30 07:46:13;;;;;;;;;73.33;52.67;;;;;12.22;83.91;99964.16;4977940;28;45238;-59
2022/03/30 07:48:39;;;;;;;;;72.25;52.00;;;;;12.23;83.85;99972.81;4978216;28;45741;-58
2022/03/30 07:51:04;;;;;;;;;69.50;50.50;;;;;12.25;84.18;99971.81;4977606;28;45298;-58
2022/03/30 07:53:30;;;;;;;;;65.25;49.00;;;;;12.28;82.81;99969.06;4978274;28;45217;-58
2022/03/30 07:55:56;;;;;;;;;74.25;52.00;;;;;12.27;85.21;99969.13;4977632;28;46005;-59
2022/03/30 07:58:22;;;;;;;;;70.75;52.25;;;;;12.22;83.75;99960.69;4978195;28;45468;-59
2022/03/30 08:00:48;;;;;;;;;72.00;53.00;;;;;12.25;83.66;99970.97;4978071;28;45286;-58
2022/03/30 08:03:13;;;;;;;;;68.25;51.25;;;;;12.27;83.49;99972.59;4976971;28;46163;-59
2022/03/30 08:05:38;;;;;;;;;71.75;53.50;;;;;12.28;84.02;99965.59;4977661;28;45474;-58
2022/03/30 08:08:06;;;;;;;;;71.25;54.00;;;;;12.25;83.85;99970.97;4978277;28;45327;-59
2022/03/30 08:10:33;;;;;;;;;80.25;54.25;;;;;12.28;83.29;99968.22;4978183;28;45284;-59
2022/03/30 08:12:58;;;;;;;;;76.25;56.50;;;;;12.31;83.32;99966.31;4978053;28;45525;-58
2022/03/30 08:15:24;;;;;;;;;73.50;55.50;;;;;12.35;83.32;99967.84;4977516;28;45182;-59
2022/03/30 08:17:51;;;;;;;;;76.00;56.00;;;;;12.37;83.24;99966.00;4985268;28;45428;-58
2022/03/30 08:23:00;;;;;;;;;77.75;57.25;;;;;12.34;83.19;99966.16;4968362;28;45223;-59
2022/03/30 08:25:26;;;;;;;;;78.25;56.00;;;;;12.40;83.27;99975.44;4977718;28;47054;-58
2022/03/30 08:27:51;;;;;;;;;77.75;58.00;;;;;12.43;83.02;99965.75;4974599;28;45309;-58
2022/03/30 08:30:17;;;;;;;;;72.25;56.50;;;;;12.48;82.49;99968.97;4967842;28;45154;-59
2022/03/30 08:32:42;;;;;;;;;81.25;60.25;;;;;12.52;82.44;99966.22;4968321;28;45346;-59
2022/03/30 08:35:10;;;;;;;;;77.67;56.67;;;;;12.55;82.50;99958.25;4966821;28;46164;-61
2022/03/30 08:37:36;;;;;;;;;81.50;54.25;;;;;12.59;82.93;99964.97;4998946;28;45479;-71
2022/03/30 08:40:02;;;;;;;;;68.00;54.25;;;;;12.61;82.13;99964.00;4967739;28;45379;-61
2022/03/30 08:42:27;;;;;;;;;82.75;56.25;;;;;12.66;82.28;99961.19;4968503;28;45377;-58
2022/03/30 08:44:53;;;;;;;;;84.25;58.00;;;;;12.66;82.28;99956.81;4966348;28;45516;-57
2022/03/30 08:47:19;;;;;;;;;79.25;58.00;;;;;12.67;82.87;99962.88;4967184;28;45556;-57
2022/03/30 08:49:47;;;;;;;;;75.75;53.00;;;;;12.68;83.14;99954.13;4967041;28;45268;-58
2022/03/30 08:52:13;;;;;;;;;73.75;58.25;;;;;12.70;83.18;99957.50;4967928;28;45418;-58
2022/03/30 08:54:47;;;;;;;;;80.75;58.75;;;;;12.70;82.88;99958.34;4965347;28;45394;-58
2022/03/30 08:57:13;;;;;;;;;83.75;60.25;;;;;12.71;83.80;99949.59;4966678;28;45361;-58
2022/03/30 08:59:39;;;;;;;;;83.50;59.50;;;;;12.70;82.83;99962.72;4968419;28;45390;-58
2022/03/30 09:02:04;;;;;;;;;79.25;59.25;;;;;12.68;82.60;99948.91;4967904;28;45513;-59
2022/03/30 09:04:30;;;;;;;;;80.50;57.50;;;;;12.67;82.07;99957.66;4964223;28;45520;-58
2022/03/30 09:06:57;;;;;;;;;78.00;58.00;;;;;12.62;82.34;99954.44;4966838;28;45481;-59
2022/03/30 09:09:30;;;;;;;;;83.75;59.75;;;;;12.61;83.13;99952.72;4966697;28;45430;-63
2022/03/30 09:11:55;;;;;;;;;74.50;54.25;;;;;12.64;83.55;99953.44;4966920;28;45325;-67
2022/03/30 09:14:24;;;;;;;;;86.00;59.00;;;;;12.67;83.46;99955.06;4965588;28;46033;-57
2022/03/30 09:16:55;;;;;;;;;81.00;58.50;;;;;12.63;83.91;99954.38;4976828;28;45406;-59
2022/03/30 09:19:21;;;;;;;;;80.25;57.00;;;;;12.65;83.84;99954.28;4964864;28;45303;-63
2022/03/30 09:21:56;;;;;;;;;81.25;58.75;;;;;12.64;84.77;99955.19;4975419;28;45513;-60
2022/03/30 09:24:24;;;;;;;;;81.00;61.00;;;;;12.60;84.65;99956.25;4965854;28;45323;-63
2022/03/30 09:26:51;;;;;;;;;80.00;57.75;;;;;12.64;84.67;99961.25;4976972;28;45911;-57
2022/03/30 09:29:20;;;;;;;;;82.75;58.75;;;;;12.74;84.47;99962.50;4968545;28;45464;-56
2022/03/30 09:31:48;;;;;;;;;82.25;59.75;;;;;12.88;83.76;99960.97;4968286;28;45340;-55
2022/03/30 09:34:14;;;;;;;;;84.75;60.75;;;;;12.99;84.14;99959.50;4973251;28;46155;-55
2022/03/30 09:36:41;;;;;;;;;79.25;56.75;;;;;13.06;83.86;99960.91;4971901;28;45228;-55
2022/03/30 09:39:25;;;;;;;;;81.75;60.25;;;;;13.12;83.11;99958.91;4969642;28;45279;-55
2022/03/30 09:41:53;;;;;;;;;85.25;59.00;;;;;13.19;83.18;99961.16;4970801;28;45590;-55
2022/03/30 09:44:19;;;;;;;;;78.75;59.50;;;;;13.26;82.71;99954.72;4972723;28;46180;-54
2022/03/30 09:47:05;;;;;;;;;83.75;58.75;;;;;13.37;82.46;99959.38;4979157;28;45678;-54
2022/03/30 09:49:43;;;;;;;;;79.00;57.75;;;;;13.48;81.90;99957.06;4979621;28;45317;-60
2022/03/30 09:52:26;;;;;;;;;71.75;51.50;;;;;13.60;81.18;99956.41;4970973;28;45446;-55
2022/03/30 09:54:57;;;;;;;;;78.00;57.00;;;;;13.68;80.87;99953.41;4978823;28;46341;-55
2022/03/30 09:57:28;;;;;;;;;71.00;52.25;;;;;13.80;80.23;99954.50;4979294;28;45323;-56
2022/03/30 10:00:08;;;;;;;;;74.25;52.75;;;;;13.92;80.28;99946.88;4979191;28;45177;-55
2022/03/30 10:02:40;;;;;;;;;77.25;56.75;;;;;14.09;79.89;99953.81;4979402;28;45377;-57
2022/03/30 10:05:07;;;;;;;;;71.25;55.00;;;;;14.25;78.31;99943.38;4979110;28;46982;-60
2022/03/30 10:07:33;;;;;;;;;81.50;57.00;;;;;14.21;77.66;99947.88;4978982;28;45347;-58
2022/03/30 10:09:59;;;;;;;;;77.75;55.25;;;;;14.23;77.37;99955.69;4979473;28;45606;-59
2022/03/30 10:12:26;;;;;;;;;76.00;55.25;;;;;14.23;76.55;99953.91;4979182;28;45519;-59
2022/03/30 10:14:53;;;;;;;;;69.50;49.75;;;;;14.24;76.29;99955.59;4979265;28;45940;-54
2022/03/30 10:17:20;;;;;;;;;76.00;55.50;;;;;14.34;76.92;99952.47;4978811;28;45281;-55
2022/03/30 10:19:46;;;;;;;;;75.75;53.75;;;;;14.51;76.55;99939.31;4979278;28;45337;-55
2022/03/30 10:22:46;;;;;;;;;76.75;56.75;;;;;14.69;76.36;99943.50;4978230;28;45487;-57
2022/03/30 10:25:36;;;;;;;;;65.00;46.00;;;;;14.87;74.85;99945.06;4978538;28;45363;-57
2022/03/30 10:28:22;;;;;;;;;69.75;49.50;;;;;14.93;73.49;99940.41;4979113;28;45287;-55
2022/03/30 10:30:53;;;;;;;;;74.00;55.00;;;;;14.98;74.19;99940.97;4967260;28;45403;-54
2022/03/30 10:33:34;;;;;;;;;74.25;54.25;;;;;15.08;74.09;99935.13;4978777;28;45374;-55
2022/03/30 10:36:21;;;;;;;;;56.75;47.00;;;;;15.14;73.05;99934.75;4978553;28;45406;-54
2022/03/30 10:39:08;;;;;;;;;68.25;50.50;;;;;15.19;72.85;99934.47;4978759;28;45777;-55
2022/03/30 10:41:54;;;;;;;;;74.75;55.00;;;;;15.14;71.54;99932.13;4978788;28;45526;-58
2022/03/30 10:44:38;;;;;;;;;70.75;51.25;;;;;15.17;72.13;99925.88;4978744;28;45228;-56
2022/03/30 10:47:12;;;;;;;;;72.00;51.75;;;;;15.26;72.37;99930.59;4967852;28;46045;-55
2022/03/30 10:50:09;;;;;;;;;68.25;51.00;;;;;15.37;71.90;99927.31;4978171;28;45259;-58
2022/03/30 10:52:43;;;;;;;;;65.75;51.00;;;;;15.46;70.55;99917.13;4980629;28;45547;-55
2022/03/30 10:55:14;;;;;;;;;70.50;49.50;;;;;15.49;70.06;99906.47;4978400;28;45243;-61
2022/03/30 10:57:53;;;;;;;;;67.50;51.50;;;;;15.49;71.09;99916.94;4976565;28;46372;-61
2022/03/30 11:00:33;;;;;;;;;71.75;54.00;;;;;15.59;70.42;99913.78;4977952;28;45321;-59
2022/03/30 11:03:06;;;;;;;;;73.25;53.00;;;;;15.69;70.42;99907.91;4978297;28;45471;-58
2022/03/30 11:05:31;;;;;;;;;71.75;54.00;;;;;15.82;70.07;99911.44;4977853;28;45243;-56
2022/03/30 11:07:57;;;;;;;;;73.25;54.50;;;;;16.13;69.84;99910.34;4978148;28;45723;-55
2022/03/30 11:10:31;;;;;;;;;73.75;53.00;;;;;16.50;69.26;99907.13;4978069;28;45350;-55
2022/03/30 11:13:02;;;;;;;;;66.75;50.50;;;;;16.60;67.32;99898.56;4978582;28;45228;-53
2022/03/30 11:15:28;;;;;;;;;73.75;54.00;;;;;16.68;66.48;99895.47;4978084;28;45301;-52
2022/03/30 11:17:56;;;;;;;;;65.00;51.50;;;;;16.85;66.09;99897.81;4986680;28;45292;-55
2022/03/30 11:20:23;;;;;;;;;71.25;51.00;;;;;16.97;65.59;99889.13;4993268;28;45265;-54
2022/03/30 11:22:50;;;;;;;;;72.50;56.00;;;;;17.13;64.22;99895.97;4978653;28;45302;-55
2022/03/30 11:25:23;;;;;;;;;70.75;52.25;;;;;17.10;64.53;99894.38;4975503;28;46588;-56